sensor_id;sensor_type;location;lat;lon;timestamp;P1;durP1;ratioP1;P2;durP2;ratioP2
15254;SDS011;7730;49.610;11.136;2023-05-07T00:00:40;4.05;;;2.17;;
15254;SDS011;7730;49.610;11.136;2023-05-07T00:03:08;4.00;;;2.40;;
15254;SDS011;7730;49.610;11.136;2023-05-07T00:05:36;5.85;;;2.67;;
15254;SDS011;7730;49.610;11.136;2023-05-07T00:08:04;3.42;;;2.33;;
15254;SDS011;7730;49.610;11.136;2023-05-07T00:10:31;4.45;;;2.25;;
15254;SDS011;7730;49.610;11.136;2023-05-07T00:12:59;3.83;;;2.30;;
15254;SDS011;7730;49.610;11.136;2023-05-07T00:15:26;3.05;;;2.15;;
15254;SDS011;7730;49.610;11.136;2023-05-07T00:17:53;5.88;;;2.47;;
15254;SDS011;7730;49.610;11.136;2023-05-07T00:20:20;6.13;;;2.47;;
15254;SDS011;7730;49.610;11.136;2023-05-07T00:22:47;6.28;;;2.40;;
15254;SDS011;7730;49.610;11.136;2023-05-07T00:25:14;4.72;;;2.40;;
15254;SDS011;7730;49.610;11.136;2023-05-07T00:27:41;6.90;;;2.50;;
15254;SDS011;7730;49.610;11.136;2023-05-07T00:30:10;3.83;;;2.38;;
15254;SDS011;7730;49.610;11.136;2023-05-07T00:32:37;4.43;;;2.47;;
15254;SDS011;7730;49.610;11.136;2023-05-07T00:35:05;3.72;;;2.40;;
15254;SDS011;7730;49.610;11.136;2023-05-07T00:37:32;3.70;;;2.47;;
15254;SDS011;7730;49.610;11.136;2023-05-07T00:39:59;6.18;;;2.85;;
15254;SDS011;7730;49.610;11.136;2023-05-07T00:42:29;4.93;;;2.50;;
15254;SDS011;7730;49.610;11.136;2023-05-07T00:44:57;4.35;;;2.50;;
15254;SDS011;7730;49.610;11.136;2023-05-07T00:47:26;4.82;;;2.38;;
15254;SDS011;7730;49.610;11.136;2023-05-07T00:49:53;3.97;;;2.35;;
15254;SDS011;7730;49.610;11.136;2023-05-07T00:52:20;5.10;;;2.30;;
15254;SDS011;7730;49.610;11.136;2023-05-07T00:54:48;4.68;;;2.50;;
15254;SDS011;7730;49.610;11.136;2023-05-07T00:57:15;5.13;;;2.50;;
15254;SDS011;7730;49.610;11.136;2023-05-07T00:59:42;4.40;;;2.60;;
15254;SDS011;7730;49.610;11.136;2023-05-07T01:02:10;6.60;;;2.80;;
15254;SDS011;7730;49.610;11.136;2023-05-07T01:04:38;6.93;;;2.92;;
15254;SDS011;7730;49.610;11.136;2023-05-07T01:07:05;4.28;;;2.67;;
15254;SDS011;7730;49.610;11.136;2023-05-07T01:09:32;6.25;;;2.60;;
15254;SDS011;7730;49.610;11.136;2023-05-07T01:12:01;4.88;;;2.72;;
15254;SDS011;7730;49.610;11.136;2023-05-07T01:14:28;4.85;;;2.75;;
15254;SDS011;7730;49.610;11.136;2023-05-07T01:16:56;5.88;;;2.83;;
15254;SDS011;7730;49.610;11.136;2023-05-07T01:19:23;6.05;;;2.85;;
15254;SDS011;7730;49.610;11.136;2023-05-07T01:21:53;5.22;;;2.85;;
15254;SDS011;7730;49.610;11.136;2023-05-07T01:24:26;5.72;;;2.88;;
15254;SDS011;7730;49.610;11.136;2023-05-07T01:26:53;6.47;;;3.20;;
15254;SDS011;7730;49.610;11.136;2023-05-07T01:29:20;4.88;;;2.90;;
15254;SDS011;7730;49.610;11.136;2023-05-07T01:31:47;5.05;;;2.80;;
15254;SDS011;7730;49.610;11.136;2023-05-07T01:34:14;6.45;;;2.95;;
15254;SDS011;7730;49.610;11.136;2023-05-07T01:36:42;6.40;;;3.30;;
15254;SDS011;7730;49.610;11.136;2023-05-07T01:39:10;5.68;;;3.10;;
15254;SDS011;7730;49.610;11.136;2023-05-07T01:41:38;6.82;;;3.13;;
15254;SDS011;7730;49.610;11.136;2023-05-07T01:44:05;6.78;;;3.20;;
15254;SDS011;7730;49.610;11.136;2023-05-07T01:46:32;6.10;;;3.10;;
15254;SDS011;7730;49.610;11.136;2023-05-07T01:49:00;7.80;;;3.63;;
15254;SDS011;7730;49.610;11.136;2023-05-07T01:51:27;6.40;;;3.20;;
15254;SDS011;7730;49.610;11.136;2023-05-07T01:53:54;6.82;;;3.20;;
15254;SDS011;7730;49.610;11.136;2023-05-07T01:56:22;5.75;;;3.30;;
15254;SDS011;7730;49.610;11.136;2023-05-07T01:58:50;7.78;;;3.60;;
15254;SDS011;7730;49.610;11.136;2023-05-07T02:01:17;6.97;;;3.60;;
15254;SDS011;7730;49.610;11.136;2023-05-07T02:03:44;7.88;;;3.83;;
15254;SDS011;7730;49.610;11.136;2023-05-07T02:06:11;7.70;;;3.90;;
15254;SDS011;7730;49.610;11.136;2023-05-07T02:08:38;6.63;;;3.45;;
15254;SDS011;7730;49.610;11.136;2023-05-07T02:11:05;8.57;;;3.70;;
15254;SDS011;7730;49.610;11.136;2023-05-07T02:13:33;6.63;;;3.55;;
15254;SDS011;7730;49.610;11.136;2023-05-07T02:16:02;7.60;;;3.78;;
15254;SDS011;7730;49.610;11.136;2023-05-07T02:18:29;8.07;;;3.63;;
15254;SDS011;7730;49.610;11.136;2023-05-07T02:20:56;7.20;;;3.70;;
15254;SDS011;7730;49.610;11.136;2023-05-07T02:23:23;7.07;;;3.45;;
15254;SDS011;7730;49.610;11.136;2023-05-07T02:25:50;9.73;;;3.50;;
15254;SDS011;7730;49.610;11.136;2023-05-07T02:28:18;7.20;;;3.75;;
15254;SDS011;7730;49.610;11.136;2023-05-07T02:30:45;8.65;;;4.07;;
15254;SDS011;7730;49.610;11.136;2023-05-07T02:33:13;6.97;;;3.78;;
15254;SDS011;7730;49.610;11.136;2023-05-07T02:35:40;8.77;;;4.00;;
15254;SDS011;7730;49.610;11.136;2023-05-07T02:38:07;9.40;;;4.30;;
15254;SDS011;7730;49.610;11.136;2023-05-07T02:40:35;7.47;;;4.00;;
15254;SDS011;7730;49.610;11.136;2023-05-07T02:43:04;7.88;;;3.95;;
15254;SDS011;7730;49.610;11.136;2023-05-07T02:45:31;9.35;;;4.20;;
15254;SDS011;7730;49.610;11.136;2023-05-07T02:47:58;9.13;;;4.32;;
15254;SDS011;7730;49.610;11.136;2023-05-07T02:50:27;8.38;;;4.25;;
15254;SDS011;7730;49.610;11.136;2023-05-07T02:52:54;9.40;;;4.25;;
15254;SDS011;7730;49.610;11.136;2023-05-07T02:55:21;8.43;;;4.40;;
15254;SDS011;7730;49.610;11.136;2023-05-07T02:57:48;10.40;;;4.25;;
15254;SDS011;7730;49.610;11.136;2023-05-07T03:00:16;8.25;;;4.32;;
15254;SDS011;7730;49.610;11.136;2023-05-07T03:02:43;9.23;;;4.40;;
15254;SDS011;7730;49.610;11.136;2023-05-07T03:05:10;9.88;;;4.40;;
15254;SDS011;7730;49.610;11.136;2023-05-07T03:07:40;8.18;;;4.25;;
15254;SDS011;7730;49.610;11.136;2023-05-07T03:10:10;8.82;;;4.40;;
15254;SDS011;7730;49.610;11.136;2023-05-07T03:12:37;10.63;;;4.68;;
15254;SDS011;7730;49.610;11.136;2023-05-07T03:15:04;9.18;;;4.80;;
15254;SDS011;7730;49.610;11.136;2023-05-07T03:17:31;9.80;;;4.68;;
15254;SDS011;7730;49.610;11.136;2023-05-07T03:19:58;9.70;;;4.75;;
15254;SDS011;7730;49.610;11.136;2023-05-07T03:22:25;9.52;;;4.50;;
15254;SDS011;7730;49.610;11.136;2023-05-07T03:24:54;9.90;;;4.80;;
15254;SDS011;7730;49.610;11.136;2023-05-07T03:27:21;10.60;;;5.03;;
15254;SDS011;7730;49.610;11.136;2023-05-07T03:29:48;9.48;;;4.85;;
15254;SDS011;7730;49.610;11.136;2023-05-07T03:32:15;10.05;;;5.05;;
15254;SDS011;7730;49.610;11.136;2023-05-07T03:34:42;10.57;;;4.97;;
15254;SDS011;7730;49.610;11.136;2023-05-07T03:37:09;11.02;;;5.20;;
15254;SDS011;7730;49.610;11.136;2023-05-07T03:39:36;9.70;;;4.82;;
15254;SDS011;7730;49.610;11.136;2023-05-07T03:42:04;10.20;;;4.68;;
15254;SDS011;7730;49.610;11.136;2023-05-07T03:46:59;11.85;;;5.10;;
15254;SDS011;7730;49.610;11.136;2023-05-07T03:49:26;11.27;;;5.40;;
15254;SDS011;7730;49.610;11.136;2023-05-07T03:51:53;9.95;;;4.90;;
15254;SDS011;7730;49.610;11.136;2023-05-07T03:54:21;10.75;;;5.30;;
15254;SDS011;7730;49.610;11.136;2023-05-07T03:56:48;9.45;;;5.03;;
15254;SDS011;7730;49.610;11.136;2023-05-07T03:59:16;10.52;;;5.32;;
15254;SDS011;7730;49.610;11.136;2023-05-07T04:01:43;11.35;;;5.15;;
15254;SDS011;7730;49.610;11.136;2023-05-07T04:04:10;10.60;;;5.30;;
15254;SDS011;7730;49.610;11.136;2023-05-07T04:06:37;9.88;;;4.95;;
15254;SDS011;7730;49.610;11.136;2023-05-07T04:09:04;10.65;;;5.43;;
15254;SDS011;7730;49.610;11.136;2023-05-07T04:11:33;10.50;;;5.32;;
15254;SDS011;7730;49.610;11.136;2023-05-07T04:14:00;10.35;;;5.25;;
15254;SDS011;7730;49.610;11.136;2023-05-07T04:16:28;10.80;;;5.82;;
15254;SDS011;7730;49.610;11.136;2023-05-07T04:18:55;10.23;;;5.32;;
15254;SDS011;7730;49.610;11.136;2023-05-07T04:21:22;11.40;;;5.68;;
15254;SDS011;7730;49.610;11.136;2023-05-07T04:23:50;9.77;;;5.32;;
15254;SDS011;7730;49.610;11.136;2023-05-07T04:26:17;10.45;;;5.55;;
15254;SDS011;7730;49.610;11.136;2023-05-07T04:28:46;11.73;;;5.68;;
15254;SDS011;7730;49.610;11.136;2023-05-07T04:31:13;11.45;;;5.57;;
15254;SDS011;7730;49.610;11.136;2023-05-07T04:33:41;14.00;;;5.82;;
15254;SDS011;7730;49.610;11.136;2023-05-07T04:36:08;10.88;;;5.60;;
15254;SDS011;7730;49.610;11.136;2023-05-07T04:38:35;10.95;;;5.60;;
15254;SDS011;7730;49.610;11.136;2023-05-07T04:41:04;11.50;;;5.82;;
15254;SDS011;7730;49.610;11.136;2023-05-07T04:43:31;12.10;;;5.78;;
15254;SDS011;7730;49.610;11.136;2023-05-07T04:45:58;11.32;;;5.50;;
15254;SDS011;7730;49.610;11.136;2023-05-07T04:48:25;11.90;;;5.80;;
15254;SDS011;7730;49.610;11.136;2023-05-07T04:50:54;11.20;;;5.60;;
15254;SDS011;7730;49.610;11.136;2023-05-07T04:53:21;10.35;;;5.38;;
15254;SDS011;7730;49.610;11.136;2023-05-07T04:55:48;11.77;;;5.80;;
15254;SDS011;7730;49.610;11.136;2023-05-07T04:58:15;10.68;;;5.47;;
15254;SDS011;7730;49.610;11.136;2023-05-07T05:00:42;11.50;;;5.70;;
15254;SDS011;7730;49.610;11.136;2023-05-07T05:03:09;10.93;;;5.47;;
15254;SDS011;7730;49.610;11.136;2023-05-07T05:05:36;10.45;;;5.55;;
15254;SDS011;7730;49.610;11.136;2023-05-07T05:08:05;13.02;;;5.75;;
15254;SDS011;7730;49.610;11.136;2023-05-07T05:10:32;12.48;;;5.88;;
15254;SDS011;7730;49.610;11.136;2023-05-07T05:12:59;12.05;;;6.10;;
15254;SDS011;7730;49.610;11.136;2023-05-07T05:15:26;11.63;;;5.30;;
15254;SDS011;7730;49.610;11.136;2023-05-07T05:17:53;12.50;;;5.78;;
15254;SDS011;7730;49.610;11.136;2023-05-07T05:20:20;13.30;;;6.20;;
15254;SDS011;7730;49.610;11.136;2023-05-07T05:22:47;11.25;;;5.32;;
15254;SDS011;7730;49.610;11.136;2023-05-07T05:25:15;13.38;;;6.15;;
15254;SDS011;7730;49.610;11.136;2023-05-07T05:27:42;12.30;;;6.35;;
15254;SDS011;7730;49.610;11.136;2023-05-07T05:30:10;14.00;;;5.47;;
15254;SDS011;7730;49.610;11.136;2023-05-07T05:32:37;12.27;;;5.50;;
15254;SDS011;7730;49.610;11.136;2023-05-07T05:35:05;12.40;;;6.20;;
15254;SDS011;7730;49.610;11.136;2023-05-07T05:37:32;12.50;;;5.63;;
15254;SDS011;7730;49.610;11.136;2023-05-07T05:39:59;11.95;;;6.50;;
15254;SDS011;7730;49.610;11.136;2023-05-07T05:42:27;13.88;;;6.25;;
15254;SDS011;7730;49.610;11.136;2023-05-07T05:44:54;13.15;;;7.15;;
15254;SDS011;7730;49.610;11.136;2023-05-07T05:47:21;13.20;;;6.05;;
15254;SDS011;7730;49.610;11.136;2023-05-07T05:49:49;13.02;;;5.85;;
15254;SDS011;7730;49.610;11.136;2023-05-07T05:52:16;12.13;;;6.05;;
15254;SDS011;7730;49.610;11.136;2023-05-07T05:54:43;12.02;;;6.03;;
15254;SDS011;7730;49.610;11.136;2023-05-07T05:57:10;11.95;;;6.00;;
15254;SDS011;7730;49.610;11.136;2023-05-07T05:59:38;11.60;;;5.68;;
15254;SDS011;7730;49.610;11.136;2023-05-07T06:02:05;12.85;;;6.47;;
15254;SDS011;7730;49.610;11.136;2023-05-07T06:04:33;10.77;;;5.93;;
15254;SDS011;7730;49.610;11.136;2023-05-07T06:07:00;10.25;;;5.32;;
15254;SDS011;7730;49.610;11.136;2023-05-07T06:09:27;12.93;;;6.05;;
15254;SDS011;7730;49.610;11.136;2023-05-07T06:11:54;11.25;;;5.70;;
15254;SDS011;7730;49.610;11.136;2023-05-07T06:14:21;11.55;;;5.90;;
15254;SDS011;7730;49.610;11.136;2023-05-07T06:16:49;12.98;;;6.07;;
15254;SDS011;7730;49.610;11.136;2023-05-07T06:19:16;12.35;;;6.05;;
15254;SDS011;7730;49.610;11.136;2023-05-07T06:21:48;12.35;;;6.45;;
15254;SDS011;7730;49.610;11.136;2023-05-07T06:24:15;13.73;;;5.97;;
15254;SDS011;7730;49.610;11.136;2023-05-07T06:26:42;11.88;;;6.20;;
15254;SDS011;7730;49.610;11.136;2023-05-07T06:29:09;12.77;;;5.93;;
15254;SDS011;7730;49.610;11.136;2023-05-07T06:31:36;13.25;;;6.00;;
15254;SDS011;7730;49.610;11.136;2023-05-07T06:34:04;14.10;;;6.10;;
15254;SDS011;7730;49.610;11.136;2023-05-07T06:36:31;11.80;;;5.68;;
15254;SDS011;7730;49.610;11.136;2023-05-07T06:38:58;11.27;;;5.63;;
15254;SDS011;7730;49.610;11.136;2023-05-07T06:41:25;12.00;;;5.90;;
15254;SDS011;7730;49.610;11.136;2023-05-07T06:43:52;10.45;;;5.10;;
15254;SDS011;7730;49.610;11.136;2023-05-07T06:46:19;10.38;;;5.15;;
15254;SDS011;7730;49.610;11.136;2023-05-07T06:48:46;12.02;;;6.07;;
15254;SDS011;7730;49.610;11.136;2023-05-07T06:51:14;12.20;;;6.00;;
15254;SDS011;7730;49.610;11.136;2023-05-07T06:53:41;11.95;;;6.00;;
15254;SDS011;7730;49.610;11.136;2023-05-07T06:56:08;12.27;;;6.25;;
15254;SDS011;7730;49.610;11.136;2023-05-07T06:58:35;12.68;;;5.88;;
15254;SDS011;7730;49.610;11.136;2023-05-07T07:01:02;10.65;;;5.20;;
15254;SDS011;7730;49.610;11.136;2023-05-07T07:03:29;11.38;;;5.57;;
15254;SDS011;7730;49.610;11.136;2023-05-07T07:05:56;12.90;;;6.15;;
15254;SDS011;7730;49.610;11.136;2023-05-07T07:08:25;11.10;;;5.55;;
15254;SDS011;7730;49.610;11.136;2023-05-07T07:10:52;9.52;;;5.25;;
15254;SDS011;7730;49.610;11.136;2023-05-07T07:13:19;11.63;;;6.15;;
15254;SDS011;7730;49.610;11.136;2023-05-07T07:15:46;11.75;;;5.85;;
15254;SDS011;7730;49.610;11.136;2023-05-07T07:18:13;11.65;;;5.80;;
15254;SDS011;7730;49.610;11.136;2023-05-07T07:20:40;11.82;;;5.57;;
15254;SDS011;7730;49.610;11.136;2023-05-07T07:23:09;11.35;;;5.03;;
15254;SDS011;7730;49.610;11.136;2023-05-07T07:25:37;10.95;;;5.00;;
15254;SDS011;7730;49.610;11.136;2023-05-07T07:28:05;11.52;;;5.32;;
15254;SDS011;7730;49.610;11.136;2023-05-07T07:30:32;10.65;;;5.13;;
15254;SDS011;7730;49.610;11.136;2023-05-07T07:32:59;12.18;;;5.22;;
15254;SDS011;7730;49.610;11.136;2023-05-07T07:35:28;11.13;;;4.88;;
15254;SDS011;7730;49.610;11.136;2023-05-07T07:37:55;8.90;;;4.15;;
15254;SDS011;7730;49.610;11.136;2023-05-07T07:40:22;10.68;;;4.97;;
15254;SDS011;7730;49.610;11.136;2023-05-07T07:42:51;8.25;;;3.97;;
15254;SDS011;7730;49.610;11.136;2023-05-07T07:45:18;8.85;;;4.32;;
15254;SDS011;7730;49.610;11.136;2023-05-07T07:47:45;10.48;;;4.50;;
15254;SDS011;7730;49.610;11.136;2023-05-07T07:50:12;9.57;;;4.63;;
15254;SDS011;7730;49.610;11.136;2023-05-07T07:52:39;11.10;;;4.65;;
15254;SDS011;7730;49.610;11.136;2023-05-07T07:55:06;9.10;;;4.68;;
15254;SDS011;7730;49.610;11.136;2023-05-07T07:57:34;9.75;;;4.45;;
15254;SDS011;7730;49.610;11.136;2023-05-07T08:00:02;9.80;;;4.43;;
15254;SDS011;7730;49.610;11.136;2023-05-07T08:02:31;10.48;;;4.38;;
15254;SDS011;7730;49.610;11.136;2023-05-07T08:04:58;10.25;;;4.70;;
15254;SDS011;7730;49.610;11.136;2023-05-07T08:07:25;9.65;;;4.57;;
15254;SDS011;7730;49.610;11.136;2023-05-07T08:09:52;10.55;;;5.07;;
15254;SDS011;7730;49.610;11.136;2023-05-07T08:12:19;10.65;;;4.75;;
15254;SDS011;7730;49.610;11.136;2023-05-07T08:14:46;7.90;;;3.60;;
15254;SDS011;7730;49.610;11.136;2023-05-07T08:17:14;8.82;;;4.35;;
15254;SDS011;7730;49.610;11.136;2023-05-07T08:19:41;10.60;;;4.93;;
15254;SDS011;7730;49.610;11.136;2023-05-07T08:22:08;9.55;;;4.45;;
15254;SDS011;7730;49.610;11.136;2023-05-07T08:24:35;9.68;;;4.63;;
15254;SDS011;7730;49.610;11.136;2023-05-07T08:27:03;9.52;;;4.75;;
15254;SDS011;7730;49.610;11.136;2023-05-07T08:29:30;10.68;;;4.53;;
15254;SDS011;7730;49.610;11.136;2023-05-07T08:31:56;9.88;;;4.50;;
15254;SDS011;7730;49.610;11.136;2023-05-07T08:34:25;9.93;;;4.28;;
15254;SDS011;7730;49.610;11.136;2023-05-07T08:36:52;9.18;;;4.43;;
15254;SDS011;7730;49.610;11.136;2023-05-07T08:39:20;9.10;;;4.57;;
15254;SDS011;7730;49.610;11.136;2023-05-07T08:41:47;9.10;;;4.40;;
15254;SDS011;7730;49.610;11.136;2023-05-07T08:44:15;10.25;;;4.93;;
15254;SDS011;7730;49.610;11.136;2023-05-07T08:46:43;9.70;;;4.60;;
15254;SDS011;7730;49.610;11.136;2023-05-07T08:49:13;8.48;;;4.20;;
15254;SDS011;7730;49.610;11.136;2023-05-07T08:51:42;9.55;;;4.60;;
15254;SDS011;7730;49.610;11.136;2023-05-07T08:54:09;7.53;;;3.97;;
15254;SDS011;7730;49.610;11.136;2023-05-07T08:56:38;10.07;;;4.72;;
15254;SDS011;7730;49.610;11.136;2023-05-07T08:59:05;7.75;;;4.18;;
15254;SDS011;7730;49.610;11.136;2023-05-07T09:01:32;10.75;;;4.50;;
15254;SDS011;7730;49.610;11.136;2023-05-07T09:04:00;10.32;;;4.32;;
15254;SDS011;7730;49.610;11.136;2023-05-07T09:06:27;9.48;;;4.18;;
15254;SDS011;7730;49.610;11.136;2023-05-07T09:08:56;10.05;;;4.47;;
15254;SDS011;7730;49.610;11.136;2023-05-07T09:11:26;9.25;;;4.30;;
15254;SDS011;7730;49.610;11.136;2023-05-07T09:13:53;8.95;;;4.53;;
15254;SDS011;7730;49.610;11.136;2023-05-07T09:16:21;11.15;;;4.63;;
15254;SDS011;7730;49.610;11.136;2023-05-07T09:18:50;8.25;;;4.13;;
15254;SDS011;7730;49.610;11.136;2023-05-07T09:21:17;8.05;;;4.13;;
15254;SDS011;7730;49.610;11.136;2023-05-07T09:23:45;9.15;;;4.57;;
15254;SDS011;7730;49.610;11.136;2023-05-07T09:26:13;8.88;;;4.47;;
15254;SDS011;7730;49.610;11.136;2023-05-07T09:28:40;7.85;;;3.60;;
15254;SDS011;7730;49.610;11.136;2023-05-07T09:31:08;7.38;;;3.63;;
15254;SDS011;7730;49.610;11.136;2023-05-07T09:33:35;8.07;;;3.92;;
15254;SDS011;7730;49.610;11.136;2023-05-07T09:36:02;8.95;;;4.00;;
15254;SDS011;7730;49.610;11.136;2023-05-07T09:38:30;9.63;;;4.32;;
15254;SDS011;7730;49.610;11.136;2023-05-07T09:41:03;11.07;;;4.43;;
15254;SDS011;7730;49.610;11.136;2023-05-07T09:43:35;9.43;;;4.28;;
15254;SDS011;7730;49.610;11.136;2023-05-07T09:46:03;8.65;;;3.97;;
15254;SDS011;7730;49.610;11.136;2023-05-07T09:48:30;9.18;;;4.30;;
15254;SDS011;7730;49.610;11.136;2023-05-07T09:50:57;6.78;;;3.45;;
15254;SDS011;7730;49.610;11.136;2023-05-07T09:53:28;9.13;;;3.88;;
15254;SDS011;7730;49.610;11.136;2023-05-07T09:55:56;9.02;;;4.20;;
15254;SDS011;7730;49.610;11.136;2023-05-07T09:58:23;9.93;;;4.40;;
15254;SDS011;7730;49.610;11.136;2023-05-07T10:00:53;9.23;;;4.15;;
15254;SDS011;7730;49.610;11.136;2023-05-07T10:03:21;9.90;;;4.13;;
15254;SDS011;7730;49.610;11.136;2023-05-07T10:05:49;9.80;;;4.43;;
15254;SDS011;7730;49.610;11.136;2023-05-07T10:08:16;9.60;;;3.92;;
15254;SDS011;7730;49.610;11.136;2023-05-07T10:10:44;9.68;;;4.13;;
15254;SDS011;7730;49.610;11.136;2023-05-07T10:13:12;12.35;;;4.40;;
15254;SDS011;7730;49.610;11.136;2023-05-07T10:15:39;9.63;;;4.25;;
15254;SDS011;7730;49.610;11.136;2023-05-07T10:18:08;9.43;;;3.88;;
15254;SDS011;7730;49.610;11.136;2023-05-07T10:20:35;8.07;;;3.90;;
15254;SDS011;7730;49.610;11.136;2023-05-07T10:23:03;7.85;;;4.00;;
15254;SDS011;7730;49.610;11.136;2023-05-07T10:25:31;8.77;;;4.00;;
15254;SDS011;7730;49.610;11.136;2023-05-07T10:27:59;9.02;;;3.92;;
15254;SDS011;7730;49.610;11.136;2023-05-07T10:30:30;9.90;;;4.70;;
15254;SDS011;7730;49.610;11.136;2023-05-07T10:33:01;8.95;;;4.18;;
15254;SDS011;7730;49.610;11.136;2023-05-07T10:35:37;8.85;;;4.15;;
15254;SDS011;7730;49.610;11.136;2023-05-07T10:38:05;10.10;;;3.97;;
15254;SDS011;7730;49.610;11.136;2023-05-07T10:40:32;9.07;;;4.10;;
15254;SDS011;7730;49.610;11.136;2023-05-07T10:43:00;8.57;;;4.07;;
15254;SDS011;7730;49.610;11.136;2023-05-07T10:45:27;10.35;;;4.35;;
15254;SDS011;7730;49.610;11.136;2023-05-07T10:48:05;8.02;;;3.95;;
15254;SDS011;7730;49.610;11.136;2023-05-07T10:50:34;8.73;;;4.10;;
15254;SDS011;7730;49.610;11.136;2023-05-07T10:55:48;12.27;;;4.65;;
15254;SDS011;7730;49.610;11.136;2023-05-07T10:58:24;9.13;;;4.10;;
15254;SDS011;7730;49.610;11.136;2023-05-07T11:00:56;8.93;;;4.20;;
15254;SDS011;7730;49.610;11.136;2023-05-07T11:03:23;10.93;;;4.20;;
15254;SDS011;7730;49.610;11.136;2023-05-07T11:08:56;7.97;;;3.60;;
15254;SDS011;7730;49.610;11.136;2023-05-07T11:14:08;11.05;;;4.22;;
15254;SDS011;7730;49.610;11.136;2023-05-07T11:16:35;8.88;;;3.63;;
15254;SDS011;7730;49.610;11.136;2023-05-07T11:19:03;11.02;;;3.85;;
15254;SDS011;7730;49.610;11.136;2023-05-07T11:21:36;13.38;;;6.88;;
15254;SDS011;7730;49.610;11.136;2023-05-07T11:24:05;12.38;;;6.03;;
15254;SDS011;7730;49.610;11.136;2023-05-07T11:26:42;8.60;;;4.35;;
15254;SDS011;7730;49.610;11.136;2023-05-07T11:29:10;8.02;;;3.90;;
15254;SDS011;7730;49.610;11.136;2023-05-07T11:31:37;9.25;;;3.80;;
15254;SDS011;7730;49.610;11.136;2023-05-07T11:34:04;8.40;;;3.60;;
15254;SDS011;7730;49.610;11.136;2023-05-07T11:36:32;9.35;;;3.92;;
15254;SDS011;7730;49.610;11.136;2023-05-07T11:38:59;8.27;;;3.50;;
15254;SDS011;7730;49.610;11.136;2023-05-07T11:41:34;8.98;;;3.38;;
15254;SDS011;7730;49.610;11.136;2023-05-07T11:44:02;8.25;;;3.60;;
15254;SDS011;7730;49.610;11.136;2023-05-07T11:46:29;7.63;;;3.38;;
15254;SDS011;7730;49.610;11.136;2023-05-07T11:48:56;8.73;;;3.83;;
15254;SDS011;7730;49.610;11.136;2023-05-07T11:51:24;7.63;;;3.38;;
15254;SDS011;7730;49.610;11.136;2023-05-07T11:53:52;6.45;;;3.53;;
15254;SDS011;7730;49.610;11.136;2023-05-07T11:56:20;7.35;;;3.53;;
15254;SDS011;7730;49.610;11.136;2023-05-07T11:58:48;6.53;;;3.35;;
15254;SDS011;7730;49.610;11.136;2023-05-07T12:01:17;8.93;;;3.20;;
15254;SDS011;7730;49.610;11.136;2023-05-07T12:03:44;8.52;;;3.72;;
15254;SDS011;7730;49.610;11.136;2023-05-07T12:06:11;7.20;;;3.28;;
15254;SDS011;7730;49.610;11.136;2023-05-07T12:08:39;6.75;;;3.45;;
15254;SDS011;7730;49.610;11.136;2023-05-07T12:11:07;6.53;;;3.15;;
15254;SDS011;7730;49.610;11.136;2023-05-07T12:13:36;7.20;;;3.30;;
15254;SDS011;7730;49.610;11.136;2023-05-07T12:16:05;7.53;;;3.30;;
15254;SDS011;7730;49.610;11.136;2023-05-07T12:18:32;6.88;;;3.33;;
15254;SDS011;7730;49.610;11.136;2023-05-07T12:21:00;8.45;;;3.50;;
15254;SDS011;7730;49.610;11.136;2023-05-07T12:23:27;5.68;;;3.30;;
15254;SDS011;7730;49.610;11.136;2023-05-07T12:25:54;7.28;;;3.30;;
15254;SDS011;7730;49.610;11.136;2023-05-07T12:28:21;7.53;;;3.67;;
15254;SDS011;7730;49.610;11.136;2023-05-07T12:30:49;7.22;;;3.10;;
15254;SDS011;7730;49.610;11.136;2023-05-07T12:33:18;6.78;;;3.30;;
15254;SDS011;7730;49.610;11.136;2023-05-07T12:35:46;7.32;;;3.28;;
15254;SDS011;7730;49.610;11.136;2023-05-07T12:38:14;6.28;;;3.20;;
15254;SDS011;7730;49.610;11.136;2023-05-07T12:40:42;6.70;;;3.20;;
15254;SDS011;7730;49.610;11.136;2023-05-07T12:43:14;7.05;;;3.22;;
15254;SDS011;7730;49.610;11.136;2023-05-07T12:45:42;5.88;;;3.00;;
15254;SDS011;7730;49.610;11.136;2023-05-07T12:48:09;6.53;;;3.00;;
15254;SDS011;7730;49.610;11.136;2023-05-07T12:50:38;6.80;;;3.28;;
15254;SDS011;7730;49.610;11.136;2023-05-07T12:53:05;7.55;;;3.40;;
15254;SDS011;7730;49.610;11.136;2023-05-07T12:55:39;5.82;;;2.92;;
15254;SDS011;7730;49.610;11.136;2023-05-07T12:58:07;6.55;;;3.00;;
15254;SDS011;7730;49.610;11.136;2023-05-07T13:00:34;7.80;;;3.22;;
15254;SDS011;7730;49.610;11.136;2023-05-07T13:03:02;6.35;;;2.80;;
15254;SDS011;7730;49.610;11.136;2023-05-07T13:05:29;8.75;;;3.13;;
15254;SDS011;7730;49.610;11.136;2023-05-07T13:07:57;5.28;;;2.95;;
15254;SDS011;7730;49.610;11.136;2023-05-07T13:10:24;6.82;;;3.30;;
15254;SDS011;7730;49.610;11.136;2023-05-07T13:12:52;5.78;;;2.90;;
15254;SDS011;7730;49.610;11.136;2023-05-07T13:15:19;6.78;;;3.25;;
15254;SDS011;7730;49.610;11.136;2023-05-07T13:17:46;6.13;;;3.10;;
15254;SDS011;7730;49.610;11.136;2023-05-07T13:20:13;5.95;;;3.10;;
15254;SDS011;7730;49.610;11.136;2023-05-07T13:22:40;10.95;;;3.40;;
15254;SDS011;7730;49.610;11.136;2023-05-07T13:25:09;8.05;;;3.00;;
15254;SDS011;7730;49.610;11.136;2023-05-07T13:27:36;4.97;;;2.75;;
15254;SDS011;7730;49.610;11.136;2023-05-07T13:30:03;8.10;;;3.45;;
15254;SDS011;7730;49.610;11.136;2023-05-07T13:32:30;6.43;;;2.75;;
15254;SDS011;7730;49.610;11.136;2023-05-07T13:34:57;7.25;;;3.10;;
15254;SDS011;7730;49.610;11.136;2023-05-07T13:37:25;6.07;;;3.00;;
15254;SDS011;7730;49.610;11.136;2023-05-07T13:39:52;6.50;;;2.85;;
15254;SDS011;7730;49.610;11.136;2023-05-07T13:42:20;5.85;;;2.83;;
15254;SDS011;7730;49.610;11.136;2023-05-07T13:44:47;6.70;;;2.78;;
15254;SDS011;7730;49.610;11.136;2023-05-07T13:47:14;4.03;;;2.60;;
15254;SDS011;7730;49.610;11.136;2023-05-07T13:49:41;6.90;;;2.95;;
15254;SDS011;7730;49.610;11.136;2023-05-07T13:52:08;5.50;;;2.50;;
15254;SDS011;7730;49.610;11.136;2023-05-07T13:54:36;5.78;;;2.60;;
15254;SDS011;7730;49.610;11.136;2023-05-07T13:57:03;8.45;;;3.00;;
15254;SDS011;7730;49.610;11.136;2023-05-07T13:59:31;6.30;;;2.90;;
15254;SDS011;7730;49.610;11.136;2023-05-07T14:01:58;6.03;;;2.80;;
15254;SDS011;7730;49.610;11.136;2023-05-07T14:04:25;10.25;;;3.47;;
15254;SDS011;7730;49.610;11.136;2023-05-07T14:06:52;8.15;;;2.80;;
15254;SDS011;7730;49.610;11.136;2023-05-07T14:09:19;7.63;;;3.20;;
15254;SDS011;7730;49.610;11.136;2023-05-07T14:11:46;8.35;;;3.42;;
15254;SDS011;7730;49.610;11.136;2023-05-07T14:14:16;8.18;;;3.72;;
15254;SDS011;7730;49.610;11.136;2023-05-07T14:16:44;7.00;;;3.60;;
15254;SDS011;7730;49.610;11.136;2023-05-07T14:19:11;11.90;;;3.88;;
15254;SDS011;7730;49.610;11.136;2023-05-07T14:21:38;9.32;;;3.83;;
15254;SDS011;7730;49.610;11.136;2023-05-07T14:24:06;5.85;;;2.80;;
15254;SDS011;7730;49.610;11.136;2023-05-07T14:26:33;6.93;;;3.10;;
15254;SDS011;7730;49.610;11.136;2023-05-07T14:29:00;6.97;;;3.28;;
15254;SDS011;7730;49.610;11.136;2023-05-07T14:31:27;9.10;;;3.70;;
15254;SDS011;7730;49.610;11.136;2023-05-07T14:33:55;5.47;;;2.70;;
15254;SDS011;7730;49.610;11.136;2023-05-07T14:36:24;7.53;;;3.13;;
15254;SDS011;7730;49.610;11.136;2023-05-07T14:38:52;4.97;;;2.70;;
15254;SDS011;7730;49.610;11.136;2023-05-07T14:41:19;11.20;;;4.10;;
15254;SDS011;7730;49.610;11.136;2023-05-07T14:43:46;7.10;;;2.97;;
15254;SDS011;7730;49.610;11.136;2023-05-07T14:46:15;11.25;;;4.30;;
15254;SDS011;7730;49.610;11.136;2023-05-07T14:48:42;9.02;;;3.53;;
15254;SDS011;7730;49.610;11.136;2023-05-07T14:51:11;7.90;;;3.10;;
15254;SDS011;7730;49.610;11.136;2023-05-07T14:53:38;8.93;;;3.30;;
15254;SDS011;7730;49.610;11.136;2023-05-07T14:56:05;7.38;;;2.97;;